createdAt,value
2023-04-14T00:01:20.367Z,17.60
2023-04-14T00:03:48.826Z,17.80
2023-04-14T00:06:17.044Z,17.20
2023-04-14T00:08:45.105Z,16.60
2023-04-14T00:11:13.215Z,17.10
2023-04-14T00:13:41.274Z,16.70
2023-04-14T00:16:11.815Z,17.50
2023-04-14T00:18:40.020Z,16.50
2023-04-14T00:21:08.155Z,16.60
2023-04-14T00:23:36.281Z,17.60
2023-04-14T00:26:05.010Z,16.50
2023-04-14T00:28:33.381Z,16.70
2023-04-14T00:31:01.442Z,15.90
2023-04-14T00:33:29.602Z,16.40
2023-04-14T00:35:57.942Z,16.90
2023-04-14T00:38:26.304Z,16.30
2023-04-14T00:40:54.870Z,15.90
2023-04-14T00:43:23.024Z,16.30
2023-04-14T00:45:52.726Z,17.20
2023-04-14T00:48:21.172Z,14.60
2023-04-14T00:50:49.645Z,13.80
2023-04-14T00:53:17.991Z,16.40
2023-04-14T00:55:46.450Z,17.00
2023-04-14T00:58:15.981Z,16.50
2023-04-14T01:00:44.202Z,15.20
2023-04-14T01:03:12.502Z,21.20
2023-04-14T01:05:40.994Z,20.90
2023-04-14T01:08:09.178Z,19.00
2023-04-14T01:10:44.528Z,25.90
2023-04-14T01:13:24.229Z,23.00
2023-04-14T01:16:02.929Z,17.00
2023-04-14T01:18:52.575Z,18.40
2023-04-14T01:21:28.710Z,18.90
2023-04-14T01:24:17.397Z,17.30
2023-04-14T01:26:45.726Z,16.10
2023-04-14T01:29:35.849Z,15.80
2023-04-14T01:32:08.734Z,15.10
2023-04-14T01:34:44.673Z,15.80
2023-04-14T01:37:17.198Z,16.60
2023-04-14T01:39:56.130Z,16.30
2023-04-14T01:42:28.879Z,16.50
2023-04-14T01:45:06.871Z,16.80
2023-04-14T01:47:36.538Z,16.90
2023-04-14T01:50:07.098Z,16.70
2023-04-14T01:52:37.586Z,17.40
2023-04-14T01:55:09.857Z,20.40
2023-04-14T01:57:42.481Z,20.60
2023-04-14T02:00:12.004Z,20.00
2023-04-14T02:02:46.524Z,20.10
2023-04-14T02:05:17.276Z,19.20
2023-04-14T02:07:51.633Z,22.20
2023-04-14T02:10:23.538Z,22.80
2023-04-14T02:12:55.174Z,22.60
2023-04-14T02:15:25.914Z,23.60
2023-04-14T02:17:58.005Z,21.30
2023-04-14T02:22:56.457Z,23.40
2023-04-14T02:25:30.387Z,22.00
2023-04-14T02:28:06.753Z,20.70
2023-04-14T02:30:44.818Z,21.10
2023-04-14T02:33:19.895Z,20.90
2023-04-14T02:36:03.522Z,20.10
2023-04-14T02:38:53.787Z,19.20
2023-04-14T02:41:33.284Z,19.80
2023-04-14T02:44:17.751Z,19.10
2023-04-14T02:46:54.000Z,19.50
2023-04-14T02:49:23.915Z,19.20
2023-04-14T02:51:54.327Z,17.80
2023-04-14T02:54:23.637Z,19.80
2023-04-14T02:56:52.525Z,18.40
2023-04-14T02:59:23.901Z,18.10
2023-04-14T03:02:02.456Z,17.90
2023-04-14T03:04:33.672Z,18.10
2023-04-14T03:07:03.342Z,17.80
2023-04-14T03:09:32.296Z,19.70
2023-04-14T03:12:03.885Z,18.30
2023-04-14T03:14:34.405Z,19.00
2023-04-14T03:29:40.056Z,18.10
2023-04-14T03:32:11.280Z,19.10
2023-04-14T03:34:43.071Z,17.60
2023-04-14T03:37:12.682Z,18.30
2023-04-14T03:39:42.565Z,17.90
2023-04-14T03:42:12.906Z,18.60
2023-04-14T03:44:47.000Z,18.40
2023-04-14T03:47:16.820Z,18.60
2023-04-14T03:49:48.262Z,18.70
2023-04-14T03:52:18.216Z,19.70
2023-04-14T03:54:48.085Z,19.00
2023-04-14T03:57:17.854Z,18.10
2023-04-14T03:59:52.264Z,17.70
2023-04-14T04:02:22.981Z,18.00
2023-04-14T04:04:53.464Z,19.00
2023-04-14T04:07:22.771Z,18.40
2023-04-14T04:09:51.873Z,17.70
2023-04-14T04:12:21.539Z,17.80
2023-04-14T04:14:49.821Z,18.80
2023-04-14T04:17:20.539Z,17.40
2023-04-14T04:19:51.677Z,18.40
2023-04-14T04:22:22.102Z,19.40
2023-04-14T04:24:51.683Z,18.00
2023-04-14T04:27:28.076Z,17.60
2023-04-14T04:30:01.393Z,18.70
2023-04-14T04:32:32.566Z,17.50
2023-04-14T04:35:00.995Z,17.70
2023-04-14T04:37:30.463Z,17.50
2023-04-14T04:39:58.929Z,18.60
2023-04-14T04:42:27.976Z,17.90
2023-04-14T04:44:56.557Z,17.20
2023-04-14T04:47:25.025Z,18.50
2023-04-14T04:49:53.192Z,17.40
2023-04-14T04:52:21.390Z,17.10
2023-04-14T04:54:52.622Z,17.20
2023-04-14T04:57:21.441Z,18.40
2023-04-14T04:59:49.648Z,18.10
2023-04-14T05:02:17.920Z,17.00
2023-04-14T05:04:46.453Z,17.50
2023-04-14T05:07:14.652Z,17.80
2023-04-14T05:09:42.844Z,17.90
2023-04-14T05:12:11.245Z,18.50
2023-04-14T05:14:39.484Z,17.50
2023-04-14T05:17:07.928Z,18.60
2023-04-14T05:19:36.382Z,18.40
2023-04-14T05:22:04.531Z,19.10
2023-04-14T05:24:32.689Z,18.90
2023-04-14T05:27:13.861Z,18.00
2023-04-14T05:29:43.301Z,20.10
2023-04-14T05:32:13.220Z,18.10
2023-04-14T05:34:42.002Z,19.00
2023-04-14T05:37:10.175Z,19.40
2023-04-14T05:39:38.544Z,19.30
2023-04-14T05:42:06.692Z,19.70
2023-04-14T05:44:34.848Z,17.90
2023-04-14T05:47:03.174Z,18.20
2023-04-14T05:49:31.588Z,18.40
2023-04-14T05:51:59.713Z,18.50
2023-04-14T05:54:27.757Z,17.40
2023-04-14T05:56:57.682Z,17.50
2023-04-14T05:59:25.830Z,16.30
2023-04-14T06:01:53.971Z,16.20
2023-04-14T06:04:22.506Z,15.90
2023-04-14T06:06:51.132Z,16.10
2023-04-14T06:09:19.170Z,14.50
2023-04-14T06:11:47.206Z,15.90
2023-04-14T06:14:15.501Z,15.40
2023-04-14T06:16:43.656Z,14.60
2023-04-14T06:19:11.996Z,15.00
2023-04-14T06:21:40.444Z,16.10
2023-04-14T06:24:08.899Z,15.60
2023-04-14T06:26:37.072Z,16.30
2023-04-14T06:29:07.747Z,17.40
2023-04-14T06:31:36.612Z,17.30
2023-04-14T06:34:04.804Z,16.70
2023-04-14T06:36:33.043Z,17.10
2023-04-14T06:39:01.705Z,16.90
2023-04-14T06:41:30.215Z,16.60
2023-04-14T06:43:58.448Z,16.70
2023-04-14T06:46:26.660Z,16.40
2023-04-14T06:48:54.953Z,18.00
2023-04-14T06:51:23.112Z,17.40
2023-04-14T06:53:51.668Z,19.40
2023-04-14T06:56:20.056Z,18.60
2023-04-14T06:58:49.112Z,18.70
2023-04-14T07:01:17.373Z,17.90
2023-04-14T07:03:46.584Z,17.90
2023-04-14T07:06:17.426Z,18.90
2023-04-14T07:08:46.684Z,18.40
2023-04-14T07:11:14.909Z,18.60
2023-04-14T07:13:43.138Z,18.30
2023-04-14T07:16:11.618Z,17.90
2023-04-14T07:18:39.731Z,19.00
2023-04-14T07:21:08.023Z,18.90
2023-04-14T07:23:36.495Z,18.60
2023-04-14T07:26:04.854Z,19.70
2023-04-14T07:28:33.710Z,18.20
2023-04-14T07:31:09.092Z,19.00
2023-04-14T07:33:37.788Z,17.50
2023-04-14T07:36:07.411Z,18.40
2023-04-14T07:38:35.656Z,16.90
2023-04-14T07:41:06.818Z,17.20
2023-04-14T07:43:35.748Z,15.70
2023-04-14T07:46:05.867Z,16.40
2023-04-14T07:48:36.647Z,16.20
2023-04-14T07:51:05.313Z,15.20
2023-04-14T07:53:34.057Z,15.40
2023-04-14T07:56:02.505Z,14.70
2023-04-14T07:58:30.618Z,14.00
2023-04-14T08:00:59.068Z,13.50
2023-04-14T08:03:27.610Z,13.20
2023-04-14T08:05:56.444Z,13.80
2023-04-14T08:08:25.517Z,13.80
2023-04-14T08:10:53.945Z,13.20
2023-04-14T08:13:22.398Z,11.70
2023-04-14T08:15:50.798Z,12.60
2023-04-14T08:18:19.471Z,11.70
2023-04-14T08:20:48.062Z,12.30
2023-04-14T08:23:16.618Z,12.40
2023-04-14T08:25:45.199Z,13.20
2023-04-14T08:28:13.290Z,13.00
2023-04-14T08:30:41.756Z,12.70
2023-04-14T08:33:10.265Z,12.20
2023-04-14T08:35:42.781Z,11.70
2023-04-14T08:38:12.244Z,11.00
2023-04-14T08:40:42.588Z,10.60
2023-04-14T08:43:13.740Z,10.10
2023-04-14T08:45:44.232Z,10.50
2023-04-14T08:48:15.679Z,10.50
2023-04-14T08:50:57.760Z,11.00
2023-04-14T08:53:27.684Z,11.20
2023-04-14T08:55:58.686Z,10.60
2023-04-14T08:58:27.304Z,11.50
2023-04-14T09:00:56.143Z,11.90
2023-04-14T09:03:25.595Z,11.10
2023-04-14T09:05:54.501Z,10.50
2023-04-14T09:08:22.660Z,9.40
2023-04-14T09:10:51.365Z,10.20
2023-04-14T09:13:23.050Z,8.90
2023-04-14T09:15:51.318Z,9.50
2023-04-14T09:18:20.117Z,9.80
2023-04-14T09:21:29.968Z,11.30
2023-04-14T09:23:37.878Z,10.40
2023-04-14T09:26:09.356Z,9.40
2023-04-14T09:28:37.910Z,9.30
2023-04-14T09:31:06.460Z,9.20
2023-04-14T09:33:39.598Z,9.30
2023-04-14T09:36:18.715Z,9.40
2023-04-14T09:38:48.574Z,9.10
2023-04-14T09:41:22.812Z,9.40
2023-04-14T09:43:50.979Z,9.00
2023-04-14T09:46:20.627Z,9.00
2023-04-14T09:48:54.241Z,9.20
2023-04-14T09:51:26.921Z,8.70
2023-04-14T09:53:55.938Z,9.00
2023-04-14T09:56:27.343Z,9.90
2023-04-14T09:59:02.902Z,9.70
2023-04-14T10:01:34.466Z,10.90
2023-04-14T10:04:03.364Z,10.30
2023-04-14T10:06:32.380Z,10.20
2023-04-14T10:09:01.660Z,10.50
2023-04-14T10:11:35.511Z,11.10
2023-04-14T10:14:06.383Z,11.10
2023-04-14T10:16:34.860Z,13.40
2023-04-14T10:19:03.909Z,13.30
2023-04-14T10:21:32.986Z,12.70
2023-04-14T10:24:01.796Z,13.90
2023-04-14T10:26:30.528Z,14.10
2023-04-14T10:28:59.491Z,15.60
2023-04-14T10:31:34.756Z,14.50
2023-04-14T10:34:11.484Z,15.50
2023-04-14T10:36:40.486Z,15.80
2023-04-14T10:39:11.117Z,15.00
2023-04-14T10:41:49.068Z,17.00
2023-04-14T10:44:28.693Z,16.70
2023-04-14T10:46:58.389Z,16.60
2023-04-14T10:49:37.354Z,16.70
2023-04-14T10:52:27.719Z,17.00
2023-04-14T10:55:01.503Z,17.40
2023-04-14T10:57:30.312Z,17.80
2023-04-14T11:00:00.164Z,17.10
2023-04-14T11:02:33.487Z,17.30
2023-04-14T11:05:09.312Z,18.20
2023-04-14T11:07:45.246Z,18.70
2023-04-14T11:10:19.577Z,19.50
2023-04-14T11:13:01.680Z,19.80
2023-04-14T11:15:45.148Z,20.30
2023-04-14T11:18:29.182Z,19.90
2023-04-14T11:21:05.185Z,18.60
2023-04-14T11:35:23.041Z,19.90
2023-04-14T11:37:59.769Z,20.20
2023-04-14T11:40:28.472Z,19.40
2023-04-14T11:42:58.422Z,19.20
2023-04-14T11:45:30.779Z,19.50
2023-04-14T11:48:02.525Z,18.40
2023-04-14T11:50:32.938Z,17.00
2023-04-14T11:53:02.856Z,17.10
2023-04-14T11:55:31.439Z,17.40
2023-04-14T11:58:01.155Z,17.80
2023-04-14T12:00:29.511Z,16.50
2023-04-14T12:02:57.866Z,16.00
2023-04-14T12:05:31.431Z,16.20
2023-04-14T12:08:07.422Z,16.60
2023-04-14T12:10:37.346Z,15.80
2023-04-14T12:13:07.541Z,15.10
2023-04-14T12:15:37.724Z,15.30
2023-04-14T12:18:13.268Z,14.30
2023-04-14T12:20:52.709Z,13.60
2023-04-14T12:23:21.477Z,13.30
2023-04-14T12:25:50.401Z,13.40
2023-04-14T12:28:25.285Z,13.10
2023-04-14T12:30:56.679Z,12.60
2023-04-14T12:33:28.086Z,13.10
2023-04-14T12:36:07.147Z,13.50
2023-04-14T12:38:36.150Z,11.70
2023-04-14T12:41:05.056Z,12.40
2023-04-14T12:43:35.481Z,11.60
2023-04-14T12:46:04.905Z,11.90
2023-04-14T12:48:40.373Z,11.70
2023-04-14T12:51:11.792Z,12.10
2023-04-14T12:53:42.746Z,11.90
2023-04-14T12:56:13.634Z,11.50
2023-04-14T12:58:44.096Z,12.70
2023-04-14T13:01:13.529Z,11.80
2023-04-14T13:03:50.482Z,12.90
2023-04-14T13:06:21.079Z,12.60
2023-04-14T13:08:51.134Z,13.00
2023-04-14T13:11:20.947Z,14.00
2023-04-14T13:13:49.194Z,14.60
2023-04-14T13:16:18.681Z,14.40
2023-04-14T13:18:49.113Z,14.70
2023-04-14T13:21:17.355Z,14.60
2023-04-14T13:23:45.675Z,14.90
2023-04-14T13:26:13.926Z,15.20
2023-04-14T13:28:42.146Z,16.60
2023-04-14T13:31:11.407Z,15.50
2023-04-14T13:33:39.498Z,15.80
2023-04-14T13:36:08.080Z,16.00
2023-04-14T13:38:36.588Z,15.40
2023-04-14T13:41:04.755Z,15.10
2023-04-14T13:43:33.410Z,14.80
2023-04-14T13:46:02.064Z,15.50
2023-04-14T13:48:31.402Z,16.10
2023-04-14T13:50:59.698Z,15.30
2023-04-14T13:53:27.950Z,14.70
2023-04-14T13:55:56.508Z,15.00
2023-04-14T13:58:25.454Z,16.10
2023-04-14T14:00:54.105Z,15.40
2023-04-14T14:03:22.825Z,14.90
2023-04-14T14:05:51.442Z,15.30
2023-04-14T14:08:19.608Z,15.00
2023-04-14T14:10:47.952Z,14.20
2023-04-14T14:13:17.364Z,14.40
2023-04-14T14:15:47.873Z,14.30
2023-04-14T14:18:16.744Z,15.80
2023-04-14T14:20:44.853Z,14.30
2023-04-14T14:23:13.160Z,14.80
2023-04-14T14:25:42.010Z,14.10
2023-04-14T14:28:11.193Z,13.70
2023-04-14T14:30:39.369Z,14.00
2023-04-14T14:33:07.628Z,13.90
2023-04-14T14:35:35.965Z,14.10
2023-04-14T14:38:04.130Z,13.90
2023-04-14T14:40:32.287Z,15.10
2023-04-14T14:43:01.285Z,16.30
2023-04-14T14:45:30.983Z,15.70
2023-04-14T14:48:00.181Z,16.00
2023-04-14T14:50:28.919Z,16.20
2023-04-14T14:52:57.136Z,14.90
2023-04-14T14:55:25.461Z,14.90
2023-04-14T14:57:53.761Z,15.60
2023-04-14T15:00:21.922Z,16.20
2023-04-14T15:02:50.794Z,15.10
2023-04-14T15:05:19.244Z,14.40
2023-04-14T15:07:47.512Z,14.70
2023-04-14T15:10:16.175Z,14.80
2023-04-14T15:12:44.480Z,15.00
2023-04-14T15:15:13.174Z,14.70
2023-04-14T15:17:41.517Z,13.40
2023-04-14T15:20:10.509Z,13.90
2023-04-14T15:22:38.722Z,13.80
2023-04-14T15:25:09.258Z,14.20
2023-04-14T15:27:37.751Z,13.60
2023-04-14T15:30:06.834Z,12.60
2023-04-14T15:32:34.964Z,13.10
2023-04-14T15:35:03.357Z,11.80
2023-04-14T15:37:31.623Z,11.00
2023-04-14T15:40:00.025Z,10.40
2023-04-14T15:42:28.725Z,10.80
2023-04-14T15:44:57.100Z,9.50
2023-04-14T15:47:25.623Z,9.50
2023-04-14T15:50:09.344Z,10.30
2023-04-14T15:52:43.089Z,8.90
2023-04-14T15:55:11.552Z,8.90
2023-04-14T15:57:39.626Z,9.20
2023-04-14T16:00:08.659Z,9.10
2023-04-14T16:02:43.928Z,10.10
2023-04-14T16:05:12.325Z,10.10
2023-04-14T16:07:40.459Z,9.60
2023-04-14T16:10:08.998Z,10.30
2023-04-14T16:12:37.336Z,10.10
2023-04-14T16:15:08.909Z,11.20
2023-04-14T16:17:37.210Z,11.50
2023-04-14T16:20:06.124Z,13.10
2023-04-14T16:22:34.318Z,12.40
2023-04-14T16:25:04.399Z,12.80
2023-04-14T16:27:34.019Z,13.80
2023-04-14T16:30:03.438Z,14.50
2023-04-14T16:32:31.728Z,15.10
2023-04-14T16:35:00.634Z,14.70
2023-04-14T16:37:28.671Z,15.70
2023-04-14T16:39:57.697Z,15.30
2023-04-14T16:42:26.549Z,15.60
2023-04-14T16:44:56.191Z,15.00
2023-04-14T16:47:24.539Z,14.50
2023-04-14T16:49:53.046Z,15.40
2023-04-14T16:52:21.342Z,14.70
2023-04-14T16:54:49.389Z,15.80
2023-04-14T16:57:17.586Z,15.10
2023-04-14T16:59:46.535Z,14.60
2023-04-14T17:02:14.773Z,15.10
2023-04-14T17:04:43.256Z,15.00
2023-04-14T17:07:11.669Z,14.50
2023-04-14T17:09:39.788Z,13.90
2023-04-14T17:12:08.085Z,14.50
2023-04-14T17:14:37.173Z,14.00
2023-04-14T17:17:05.705Z,13.80
2023-04-14T17:19:34.666Z,13.00
2023-04-14T17:22:02.809Z,12.70
2023-04-14T17:24:31.089Z,13.20
2023-04-14T17:27:00.694Z,12.60
2023-04-14T17:29:29.717Z,12.20
2023-04-14T17:31:58.040Z,11.90
2023-04-14T17:34:27.355Z,11.60
2023-04-14T17:36:56.548Z,10.90
2023-04-14T17:39:27.229Z,10.80
2023-04-14T17:41:57.478Z,11.90
2023-04-14T17:44:33.796Z,10.70
2023-04-14T17:47:03.779Z,10.80
2023-04-14T17:49:33.788Z,10.50
2023-04-14T17:52:20.945Z,11.00
2023-04-14T17:54:50.055Z,11.60
2023-04-14T17:57:18.648Z,11.00
2023-04-14T17:59:47.341Z,11.40
2023-04-14T18:02:16.401Z,10.30
2023-04-14T18:04:45.631Z,11.80
2023-04-14T18:07:13.870Z,10.40
2023-04-14T18:09:42.176Z,11.10
2023-04-14T18:12:11.072Z,9.70
2023-04-14T18:14:39.685Z,9.30
2023-04-14T18:17:07.985Z,10.20
2023-04-14T18:19:36.262Z,9.00
2023-04-14T18:22:04.580Z,8.60
2023-04-14T18:28:02.825Z,8.50
2023-04-14T18:29:54.519Z,8.60
2023-04-14T18:32:25.297Z,7.40
2023-04-14T18:34:54.126Z,8.00
2023-04-14T18:37:22.561Z,8.40
2023-04-14T18:39:51.220Z,8.10
2023-04-14T18:42:19.498Z,8.50
2023-04-14T18:44:48.365Z,8.10
2023-04-14T18:47:17.970Z,7.80
2023-04-14T18:49:46.458Z,8.20
2023-04-14T18:52:15.344Z,7.80
2023-04-14T18:54:43.582Z,7.70
2023-04-14T18:57:11.870Z,7.40
2023-04-14T18:59:40.352Z,7.50
2023-04-14T19:02:13.261Z,7.70
2023-04-14T19:04:42.257Z,7.90
2023-04-14T19:07:10.717Z,8.10
2023-04-14T19:09:39.126Z,8.50
2023-04-14T19:12:15.514Z,8.30
2023-04-14T19:14:54.007Z,7.70
2023-04-14T19:17:22.506Z,8.30
2023-04-14T19:19:50.818Z,8.50
2023-04-14T19:22:19.189Z,8.40
2023-04-14T19:24:48.304Z,7.90
2023-04-14T19:27:16.371Z,8.90
2023-04-14T19:29:44.489Z,7.80
2023-04-14T19:32:13.233Z,8.50
2023-04-14T19:34:41.388Z,8.10
2023-04-14T19:37:11.135Z,8.70
2023-04-14T19:39:39.748Z,10.20
2023-04-14T19:42:08.125Z,8.00
2023-04-14T19:44:36.783Z,8.50
2023-04-14T19:47:06.297Z,8.60
2023-04-14T19:49:35.453Z,8.70
2023-04-14T19:52:04.997Z,9.00
2023-04-14T19:54:34.010Z,9.00
2023-04-14T19:57:02.363Z,8.50
2023-04-14T19:59:31.581Z,8.80
2023-04-14T20:02:01.291Z,8.90
2023-04-14T20:04:29.594Z,8.40
2023-04-14T20:06:58.013Z,9.50
2023-04-14T20:09:26.167Z,9.00
2023-04-14T20:11:54.780Z,9.30
2023-04-14T20:14:23.182Z,9.80
2023-04-14T20:16:51.673Z,9.50
2023-04-14T20:19:21.054Z,9.20
2023-04-14T20:21:49.292Z,9.40
2023-04-14T20:24:17.930Z,9.50
2023-04-14T20:26:46.674Z,10.50
2023-04-14T20:29:16.899Z,10.20
2023-04-14T20:31:46.753Z,10.50
2023-04-14T20:34:15.075Z,10.10
2023-04-14T20:36:44.957Z,10.40
2023-04-14T20:39:13.532Z,10.80
2023-04-14T20:41:41.611Z,10.40
2023-04-14T20:44:09.727Z,10.90
2023-04-14T20:46:38.630Z,10.70
2023-04-14T20:49:07.529Z,10.30
2023-04-14T20:51:35.641Z,9.20
2023-04-14T20:54:04.358Z,11.60
2023-04-14T20:56:34.215Z,11.00
2023-04-14T20:59:02.990Z,11.10
2023-04-14T21:01:31.479Z,11.10
2023-04-14T21:03:59.860Z,10.10
2023-04-14T21:06:28.072Z,10.80
2023-04-14T21:08:56.600Z,10.90
2023-04-14T21:11:24.796Z,11.50
2023-04-14T21:15:39.707Z,10.90
2023-04-14T21:16:41.915Z,10.60
2023-04-14T21:19:10.379Z,11.30
2023-04-14T21:21:39.197Z,10.80
2023-04-14T21:24:08.683Z,11.40
2023-04-14T21:26:36.948Z,11.70
2023-04-14T21:29:05.172Z,11.60
2023-04-14T21:31:33.682Z,12.10
2023-04-14T21:34:02.407Z,12.10
2023-04-14T21:36:30.849Z,11.30
2023-04-14T21:39:00.939Z,12.20
2023-04-14T21:41:29.578Z,12.20
2023-04-14T21:43:58.044Z,12.00
2023-04-14T21:46:26.703Z,11.50
2023-04-14T21:48:54.857Z,12.70
2023-04-14T21:51:23.001Z,11.70
2023-04-14T21:53:51.156Z,12.50
2023-04-14T21:56:19.431Z,11.40
2023-04-14T21:58:47.569Z,11.50
2023-04-14T22:01:15.777Z,11.50
2023-04-14T22:03:44.781Z,11.40
2023-04-14T22:06:13.689Z,11.40
2023-04-14T22:08:42.003Z,11.50
2023-04-14T22:11:10.353Z,11.10
2023-04-14T22:13:38.598Z,11.00
2023-04-14T22:16:07.587Z,11.40
2023-04-14T22:18:37.229Z,10.80
2023-04-14T22:21:09.877Z,10.20
2023-04-14T22:23:40.842Z,11.10
2023-04-14T22:26:10.428Z,11.30
2023-04-14T22:28:39.051Z,12.00
2023-04-14T22:31:07.911Z,12.00
2023-04-14T22:33:36.145Z,12.30
2023-04-14T22:36:06.297Z,13.10
2023-04-14T22:38:34.461Z,13.30
2023-04-14T22:41:02.802Z,13.40
2023-04-14T22:43:31.362Z,13.80
2023-04-14T22:45:59.458Z,15.90
2023-04-14T22:48:27.625Z,15.10
2023-04-14T22:50:56.046Z,15.10
2023-04-14T22:53:24.130Z,15.10
2023-04-14T22:55:52.201Z,15.80
2023-04-14T22:58:21.947Z,16.20
2023-04-14T23:00:50.260Z,15.80
2023-04-14T23:03:18.441Z,15.80
2023-04-14T23:05:46.814Z,16.40
2023-04-14T23:08:15.832Z,15.90
2023-04-14T23:10:43.944Z,17.00
2023-04-14T23:13:12.056Z,15.40
2023-04-14T23:15:40.207Z,16.70
2023-04-14T23:18:09.519Z,15.50
2023-04-14T23:20:38.757Z,14.70
2023-04-14T23:23:12.267Z,14.70
2023-04-14T23:25:41.085Z,15.30
2023-04-14T23:28:10.128Z,14.80
2023-04-14T23:30:38.511Z,14.90
2023-04-14T23:33:06.909Z,16.30
2023-04-14T23:35:39.498Z,14.70
2023-04-14T23:38:07.658Z,14.50
2023-04-14T23:40:36.080Z,15.90
2023-04-14T23:43:05.530Z,15.30
2023-04-14T23:45:37.331Z,15.70
2023-04-14T23:48:06.836Z,16.00
2023-04-14T23:50:59.598Z,15.80
2023-04-14T23:53:24.512Z,15.40
2023-04-14T23:55:53.004Z,16.30
2023-04-14T23:58:26.550Z,15.50
